createdAt,value
2018-08-24T01:43:26.560Z,82.43
2018-08-24T01:45:54.210Z,82.04
2018-08-24T01:48:22.104Z,82.19
2018-08-24T01:50:49.745Z,82.28
2018-08-24T01:53:17.350Z,82.11
2018-08-24T01:55:44.995Z,81.32
2018-08-24T01:58:12.594Z,79.97
2018-08-24T02:00:40.284Z,80.83
2018-08-24T02:03:07.922Z,80.19
2018-08-24T02:05:35.687Z,80.17
2018-08-24T02:08:03.352Z,79.31
2018-08-24T02:10:31.107Z,80.04
2018-08-24T02:12:58.731Z,80.38
2018-08-24T02:15:26.450Z,79.68
2018-08-24T02:17:54.180Z,79.31
2018-08-24T02:20:27.322Z,79.43
2018-08-24T02:22:55.002Z,80.00
2018-08-24T02:25:22.599Z,79.67
2018-08-24T02:27:50.285Z,79.33
2018-08-24T02:30:17.923Z,80.78
2018-08-24T02:32:46.439Z,80.95
2018-08-24T02:35:14.521Z,81.25
2018-08-24T02:37:42.208Z,80.96
2018-08-24T02:40:10.000Z,82.06
2018-08-24T02:42:37.759Z,81.49
2018-08-24T02:45:05.666Z,80.95
2018-08-24T02:47:33.183Z,80.92
2018-08-24T02:50:00.753Z,80.62
2018-08-24T02:52:28.516Z,79.86
2018-08-24T02:54:56.042Z,80.67
2018-08-24T02:57:23.621Z,80.84
2018-08-24T02:59:51.154Z,79.99
2018-08-24T03:02:18.744Z,79.45
2018-08-24T03:04:46.274Z,79.28
2018-08-24T03:07:13.812Z,78.81
2018-08-24T03:09:41.373Z,78.17
2018-08-24T03:12:08.902Z,78.67
2018-08-24T03:14:36.486Z,78.35
2018-08-24T03:17:04.035Z,77.89
2018-08-24T03:19:32.728Z,77.55
2018-08-24T03:22:00.258Z,77.87
2018-08-24T03:24:27.845Z,78.15
2018-08-24T03:26:55.369Z,77.90
2018-08-24T03:29:24.195Z,78.07
2018-08-24T03:31:51.797Z,77.78
2018-08-24T03:34:19.325Z,77.97
2018-08-24T03:36:46.882Z,79.53
2018-08-24T03:39:14.439Z,78.97
2018-08-24T03:41:42.031Z,79.10
2018-08-24T03:44:09.729Z,79.58
2018-08-24T03:46:37.283Z,79.49
2018-08-24T03:49:04.845Z,79.75
2018-08-24T03:51:32.453Z,79.56
2018-08-24T03:54:00.345Z,80.37
2018-08-24T03:56:27.920Z,79.17
2018-08-24T03:58:55.480Z,78.56
2018-08-24T04:01:23.023Z,78.59
2018-08-24T04:03:50.598Z,78.47
2018-08-24T04:06:18.158Z,78.90
2018-08-24T04:08:45.931Z,79.61
2018-08-24T04:11:13.531Z,80.53
2018-08-24T04:13:41.074Z,80.85
2018-08-24T04:16:08.660Z,79.39
2018-08-24T04:18:36.182Z,79.97
2018-08-24T04:21:03.756Z,79.78
2018-08-24T04:23:31.351Z,80.47
2018-08-24T04:25:58.924Z,79.28
2018-08-24T04:28:26.495Z,79.60
2018-08-24T04:30:54.092Z,80.29
2018-08-24T04:33:21.636Z,80.72
2018-08-24T04:35:49.214Z,81.27
2018-08-24T04:38:16.790Z,82.74
2018-08-24T04:40:44.352Z,82.05
2018-08-24T04:43:11.938Z,81.97
2018-08-24T04:45:39.619Z,82.14
2018-08-24T04:48:07.080Z,83.13
2018-08-24T04:50:34.613Z,83.78
2018-08-24T04:53:02.172Z,82.91
2018-08-24T04:55:29.686Z,83.54
2018-08-24T04:57:57.268Z,83.64
2018-08-24T05:00:24.800Z,82.98
2018-08-24T05:02:52.382Z,83.05
2018-08-24T05:05:19.927Z,82.79
2018-08-24T05:07:47.503Z,83.45
2018-08-24T05:10:15.078Z,83.32
2018-08-24T05:12:42.673Z,82.81
2018-08-24T05:15:10.240Z,82.42
2018-08-24T05:17:37.755Z,82.49
2018-08-24T05:20:05.365Z,82.66
2018-08-24T05:22:32.934Z,84.01
2018-08-24T05:25:00.505Z,82.34
2018-08-24T05:27:28.030Z,83.52
2018-08-24T05:29:55.728Z,83.28
2018-08-24T05:32:23.457Z,83.59
2018-08-24T05:34:51.048Z,82.74
2018-08-24T05:37:18.605Z,81.98
2018-08-24T05:39:46.153Z,82.18
2018-08-24T05:42:13.764Z,82.48
2018-08-24T05:44:41.399Z,82.23
2018-08-24T05:47:08.954Z,82.78
2018-08-24T05:49:36.676Z,82.83
2018-08-24T05:52:04.266Z,82.85
2018-08-24T05:54:31.853Z,82.21
2018-08-24T05:56:59.374Z,83.44
2018-08-24T05:59:26.900Z,83.78
2018-08-24T06:01:54.469Z,83.48
2018-08-24T06:04:22.011Z,83.13
2018-08-24T06:06:49.579Z,83.05
2018-08-24T06:09:17.119Z,82.55
2018-08-24T06:11:44.702Z,82.88
2018-08-24T06:14:12.235Z,83.00
2018-08-24T06:16:39.799Z,82.82
2018-08-24T06:19:07.381Z,82.88
2018-08-24T06:21:34.910Z,83.46
2018-08-24T06:24:02.547Z,82.69
2018-08-24T06:26:30.139Z,83.21
2018-08-24T06:28:57.677Z,84.58
2018-08-24T06:31:25.208Z,82.87
2018-08-24T06:33:52.762Z,83.34
2018-08-24T06:36:20.470Z,82.94
2018-08-24T06:38:48.088Z,83.28
2018-08-24T06:41:15.609Z,82.42
2018-08-24T06:43:43.181Z,82.83
2018-08-24T06:46:10.720Z,82.17
2018-08-24T06:48:38.435Z,82.92
2018-08-24T06:51:06.041Z,82.59
2018-08-24T06:53:33.933Z,82.55
2018-08-24T06:56:01.458Z,83.10
2018-08-24T06:58:29.222Z,82.00
2018-08-24T07:00:57.146Z,82.58
2018-08-24T07:03:24.712Z,81.85
2018-08-24T07:05:52.412Z,81.34
2018-08-24T07:08:19.985Z,81.44
2018-08-24T07:10:47.554Z,82.00
2018-08-24T07:13:15.161Z,82.04
2018-08-24T07:15:42.745Z,81.93
2018-08-24T07:18:10.487Z,82.16
2018-08-24T07:20:38.058Z,82.54
2018-08-24T07:23:05.641Z,82.20
2018-08-24T07:25:33.410Z,82.67
2018-08-24T07:28:01.113Z,81.88
2018-08-24T07:30:28.700Z,81.35
2018-08-24T07:32:56.630Z,81.52
2018-08-24T07:35:25.289Z,80.97
2018-08-24T07:37:52.835Z,80.39
2018-08-24T07:40:20.659Z,80.57
2018-08-24T07:42:48.258Z,80.05
2018-08-24T07:45:16.721Z,80.13
2018-08-24T07:47:44.322Z,80.80
2018-08-24T07:50:11.956Z,80.24
2018-08-24T07:52:39.762Z,80.21
2018-08-24T07:55:09.330Z,80.17
2018-08-24T07:57:37.255Z,79.90
2018-08-24T08:00:05.069Z,79.93
2018-08-24T08:02:32.793Z,79.34
2018-08-24T08:05:00.369Z,79.27
2018-08-24T08:07:27.931Z,79.70
2018-08-24T08:09:55.686Z,80.14
2018-08-24T08:12:23.292Z,80.11
2018-08-24T08:14:50.902Z,79.27
2018-08-24T08:17:18.596Z,78.75
2018-08-24T08:19:46.178Z,79.82
2018-08-24T08:22:13.929Z,78.77
2018-08-24T08:24:41.497Z,78.88
2018-08-24T08:27:09.115Z,79.68
2018-08-24T08:29:36.690Z,79.48
2018-08-24T08:32:04.337Z,80.54
2018-08-24T08:34:32.053Z,81.23
2018-08-24T08:36:59.629Z,81.69
2018-08-24T08:39:27.250Z,82.75
2018-08-24T08:41:54.827Z,82.04
2018-08-24T08:44:22.501Z,82.76
2018-08-24T08:46:50.085Z,83.33
2018-08-24T08:49:17.647Z,83.17
2018-08-24T08:51:45.238Z,83.09
2018-08-24T08:54:12.807Z,82.58
2018-08-24T08:56:40.504Z,82.01
2018-08-24T08:59:08.276Z,81.88
2018-08-24T09:01:35.806Z,82.87
2018-08-24T09:04:03.397Z,82.54
2018-08-24T09:06:31.075Z,83.36
2018-08-24T09:08:58.558Z,83.41
2018-08-24T09:11:26.083Z,83.03
2018-08-24T09:13:53.661Z,83.87
2018-08-24T09:16:21.276Z,83.75
2018-08-24T09:19:05.574Z,83.67
2018-08-24T09:21:48.092Z,84.09
2018-08-24T09:24:31.290Z,83.53
2018-08-24T09:27:14.662Z,83.69
2018-08-24T09:29:42.233Z,83.09
2018-08-24T09:32:10.685Z,82.72
2018-08-24T09:34:38.302Z,84.44
2018-08-24T09:37:05.843Z,82.38
2018-08-24T09:39:33.597Z,83.18
2018-08-24T09:42:01.189Z,83.79
2018-08-24T09:44:29.019Z,80.90
2018-08-24T09:46:56.865Z,80.81
2018-08-24T09:49:24.566Z,81.25
2018-08-24T09:51:52.244Z,81.90
2018-08-24T09:54:19.840Z,81.66
2018-08-24T09:56:47.473Z,80.99
2018-08-24T09:59:15.052Z,80.12
2018-08-24T10:02:01.323Z,79.53
2018-08-24T10:04:48.552Z,79.74
2018-08-24T10:07:20.960Z,79.16
2018-08-24T10:09:48.561Z,78.76
2018-08-24T10:12:16.088Z,78.93
2018-08-24T10:14:43.684Z,78.23
2018-08-24T10:17:11.217Z,78.37
2018-08-24T10:19:38.790Z,76.87
2018-08-24T10:22:06.316Z,77.76
2018-08-24T10:24:33.864Z,77.07
2018-08-24T10:27:01.420Z,74.15
2018-08-24T10:29:29.084Z,73.28
2018-08-24T10:31:56.569Z,73.90
2018-08-24T10:34:24.122Z,73.47
2018-08-24T10:36:51.689Z,72.93
2018-08-24T10:39:19.208Z,69.78
2018-08-24T10:41:46.762Z,70.99
2018-08-24T10:44:14.281Z,68.85
2018-08-24T10:46:41.842Z,68.22
2018-08-24T10:49:09.376Z,70.78
2018-08-24T10:51:36.957Z,68.64
2018-08-24T10:54:04.519Z,64.99
2018-08-24T10:56:32.047Z,63.85
2018-08-24T10:58:59.625Z,64.61
2018-08-24T11:01:27.134Z,63.94
2018-08-24T11:03:54.690Z,61.67
2018-08-24T11:06:22.229Z,62.46
2018-08-24T11:08:49.757Z,62.45
2018-08-24T11:11:17.329Z,61.11
2018-08-24T11:13:44.897Z,60.53
2018-08-24T11:16:12.451Z,59.46
2018-08-24T11:18:39.976Z,57.60
2018-08-24T11:21:07.524Z,56.49
2018-08-24T11:23:35.180Z,58.15
2018-08-24T11:26:02.795Z,57.23
2018-08-24T11:28:30.364Z,58.15
2018-08-24T11:30:58.365Z,56.33
2018-08-24T11:33:25.938Z,57.10
2018-08-24T11:35:53.469Z,56.30
2018-08-24T11:38:21.121Z,57.54
2018-08-24T11:40:48.674Z,58.32
2018-08-24T11:43:16.401Z,55.55
2018-08-24T11:45:43.921Z,56.18
2018-08-24T11:48:11.571Z,54.61
2018-08-24T11:50:39.569Z,55.11
2018-08-24T11:53:07.176Z,53.90
2018-08-24T11:55:34.733Z,54.82
2018-08-24T11:58:02.274Z,53.14
2018-08-24T12:00:29.783Z,53.60
2018-08-24T12:02:57.718Z,53.77
2018-08-24T12:05:25.271Z,53.12
2018-08-24T12:07:52.874Z,51.78
2018-08-24T12:10:20.439Z,51.37
2018-08-24T12:12:48.078Z,51.72
2018-08-24T12:15:15.861Z,50.75
2018-08-24T12:17:43.602Z,50.60
2018-08-24T12:20:11.165Z,51.07
2018-08-24T12:22:38.731Z,50.92
2018-08-24T12:25:06.419Z,52.85
2018-08-24T12:27:34.105Z,52.31
2018-08-24T12:30:01.691Z,51.63
2018-08-24T12:32:29.293Z,51.66
2018-08-24T12:34:57.565Z,50.85
2018-08-24T12:37:25.126Z,53.95
2018-08-24T12:39:52.773Z,51.22
2018-08-24T12:42:20.303Z,49.71
2018-08-24T12:44:47.923Z,49.77
2018-08-24T12:47:15.461Z,48.81
2018-08-24T12:49:43.237Z,47.86
2018-08-24T12:52:10.855Z,48.94
2018-08-24T12:54:38.362Z,48.44
2018-08-24T12:57:05.932Z,49.64
2018-08-24T12:59:33.647Z,48.02
2018-08-24T13:02:01.218Z,47.58
2018-08-24T13:04:28.800Z,47.07
2018-08-24T13:06:56.381Z,48.75
2018-08-24T13:09:23.929Z,46.90
2018-08-24T13:11:51.494Z,47.68
2018-08-24T13:14:19.096Z,46.79
2018-08-24T13:16:46.674Z,47.92
2018-08-24T13:19:14.201Z,48.25
2018-08-24T13:21:41.730Z,48.76
2018-08-24T13:24:09.483Z,48.95
2018-08-24T13:26:37.015Z,48.63
2018-08-24T13:29:04.600Z,47.76
2018-08-24T13:31:32.179Z,48.47
2018-08-24T13:33:59.708Z,47.65
2018-08-24T13:36:27.259Z,47.43
2018-08-24T13:38:54.870Z,47.57
2018-08-24T13:41:22.421Z,47.37
2018-08-24T13:43:49.944Z,47.49
2018-08-24T13:46:17.513Z,48.45
2018-08-24T13:48:45.067Z,47.58
2018-08-24T13:51:12.634Z,48.42
2018-08-24T13:53:40.176Z,48.51
2018-08-24T13:56:07.690Z,48.44
2018-08-24T13:58:35.278Z,48.31
2018-08-24T14:01:02.799Z,47.89
2018-08-24T14:03:30.357Z,47.98
2018-08-24T14:05:57.869Z,47.59
2018-08-24T14:08:25.417Z,47.33
2018-08-24T14:10:53.174Z,47.88
2018-08-24T14:13:20.826Z,47.98
2018-08-24T14:15:48.372Z,47.41
2018-08-24T14:18:15.960Z,47.60
2018-08-24T14:20:43.509Z,44.42
2018-08-24T14:23:11.034Z,44.28
2018-08-24T14:25:38.649Z,44.26
2018-08-24T14:28:06.139Z,45.44
2018-08-24T14:30:33.697Z,45.86
2018-08-24T14:33:01.252Z,44.88
2018-08-24T14:35:36.877Z,45.97
2018-08-24T14:38:04.549Z,46.81
2018-08-24T14:40:32.087Z,47.74
2018-08-24T14:42:59.595Z,47.59
2018-08-24T14:45:27.171Z,48.31
2018-08-24T14:47:54.722Z,48.54
2018-08-24T14:50:22.306Z,49.85
2018-08-24T14:52:49.833Z,48.96
2018-08-24T14:55:17.478Z,48.59
2018-08-24T14:57:44.997Z,48.85
2018-08-24T15:00:12.585Z,49.27
2018-08-24T15:02:40.153Z,49.06
2018-08-24T15:05:07.808Z,48.57
2018-08-24T15:07:35.347Z,48.67
2018-08-24T15:10:03.016Z,48.73
2018-08-24T15:12:30.545Z,48.47
2018-08-24T15:14:58.071Z,48.47
2018-08-24T15:17:25.618Z,47.88
2018-08-24T15:19:53.231Z,48.50
2018-08-24T15:22:20.814Z,47.55
2018-08-24T15:24:48.346Z,47.51
2018-08-24T15:27:15.868Z,47.71
2018-08-24T15:29:43.460Z,47.42
2018-08-24T15:32:10.993Z,47.64
2018-08-24T15:34:38.575Z,47.35
2018-08-24T15:37:06.140Z,47.65
2018-08-24T15:39:33.664Z,47.61
2018-08-24T15:42:01.271Z,47.42
2018-08-24T15:44:28.799Z,47.99
2018-08-24T15:46:56.559Z,47.80
2018-08-24T15:49:24.105Z,48.00
2018-08-24T15:51:51.773Z,48.59
2018-08-24T15:54:19.372Z,50.19
2018-08-24T15:56:46.893Z,48.72
2018-08-24T15:59:14.428Z,48.96
2018-08-24T16:01:41.993Z,49.24
2018-08-24T16:04:09.532Z,49.13
2018-08-24T16:06:37.134Z,49.31
2018-08-24T16:09:04.653Z,49.33
2018-08-24T16:11:32.207Z,49.12
2018-08-24T16:13:59.712Z,49.48
2018-08-24T16:16:27.261Z,48.72
2018-08-24T16:18:54.800Z,48.62
2018-08-24T16:21:22.361Z,48.15
2018-08-24T16:23:49.936Z,49.28
2018-08-24T16:26:17.474Z,49.00
2018-08-24T16:28:45.031Z,49.53
2018-08-24T16:31:12.558Z,49.25
2018-08-24T16:33:40.135Z,49.30
2018-08-24T16:36:07.658Z,49.75
2018-08-24T16:38:35.235Z,50.15
2018-08-24T16:41:02.812Z,49.49
2018-08-24T16:43:30.360Z,50.09
2018-08-24T16:45:57.941Z,49.76
2018-08-24T16:48:25.526Z,49.87
2018-08-24T16:50:53.069Z,49.93
2018-08-24T16:53:20.645Z,49.50
2018-08-24T16:55:48.166Z,49.50
2018-08-24T16:58:15.681Z,49.51
2018-08-24T17:00:43.249Z,49.68
2018-08-24T17:03:10.836Z,49.64
2018-08-24T17:05:38.340Z,48.97
2018-08-24T17:08:05.843Z,49.11
2018-08-24T17:10:33.528Z,49.37
2018-08-24T17:13:01.048Z,50.16
2018-08-24T17:15:28.602Z,49.49
2018-08-24T17:17:56.278Z,49.70
2018-08-24T17:20:23.791Z,49.31
2018-08-24T17:22:51.427Z,49.61
2018-08-24T17:25:19.014Z,49.62
2018-08-24T17:27:46.625Z,49.72
2018-08-24T17:30:14.197Z,49.54
2018-08-24T17:32:41.718Z,49.27
2018-08-24T17:35:09.575Z,49.85
2018-08-24T17:37:37.092Z,49.99
2018-08-24T17:40:04.660Z,49.98
2018-08-24T17:42:32.173Z,49.79
2018-08-24T17:44:59.725Z,50.43
2018-08-24T17:47:27.439Z,50.03
2018-08-24T17:49:54.997Z,50.09
2018-08-24T17:52:22.516Z,50.37
2018-08-24T17:54:50.065Z,50.47
2018-08-24T17:57:17.588Z,50.35
2018-08-24T17:59:45.109Z,49.82
2018-08-24T18:02:12.658Z,50.44
2018-08-24T18:04:40.161Z,50.85
2018-08-24T18:07:07.779Z,49.98
2018-08-24T18:09:35.274Z,50.63
2018-08-24T18:12:02.860Z,50.75
2018-08-24T18:14:30.393Z,50.47
2018-08-24T18:16:57.945Z,50.59
2018-08-24T18:19:25.449Z,50.69
2018-08-24T18:21:53.034Z,50.80
2018-08-24T18:24:20.574Z,50.84
2018-08-24T18:26:48.185Z,51.00
2018-08-24T18:29:15.706Z,50.23
2018-08-24T18:31:43.269Z,51.74
2018-08-24T18:34:10.779Z,51.97
2018-08-24T18:36:38.375Z,50.54
2018-08-24T18:39:05.867Z,50.80
2018-08-24T18:41:33.393Z,51.59
2018-08-24T18:44:01.023Z,51.33
2018-08-24T18:46:28.538Z,51.31
2018-08-24T18:48:56.047Z,51.79
2018-08-24T18:51:23.602Z,51.80
2018-08-24T18:53:51.122Z,52.11
2018-08-24T18:56:18.913Z,51.16
2018-08-24T18:58:46.543Z,50.87
2018-08-24T19:01:14.124Z,51.45
2018-08-24T19:03:41.673Z,51.72
2018-08-24T19:06:09.179Z,52.85
2018-08-24T19:08:36.744Z,52.63
2018-08-24T19:11:04.279Z,52.29
2018-08-24T19:13:31.805Z,52.62
2018-08-24T19:15:59.373Z,52.87
2018-08-24T19:18:43.606Z,53.02
2018-08-24T19:21:26.071Z,52.78
2018-08-24T19:23:53.590Z,52.81
2018-08-24T19:26:21.183Z,53.11
2018-08-24T19:28:48.730Z,52.74
2018-08-24T19:31:16.248Z,52.95
2018-08-24T19:33:43.817Z,53.59
2018-08-24T19:36:11.351Z,54.15
2018-08-24T19:38:38.917Z,54.13
2018-08-24T19:41:22.257Z,54.01
2018-08-24T19:43:49.864Z,53.89
2018-08-24T19:46:17.429Z,53.22
2018-08-24T19:49:00.638Z,53.65
2018-08-24T19:51:28.202Z,53.65
2018-08-24T19:53:55.759Z,53.55
2018-08-24T19:56:23.340Z,53.96
2018-08-24T19:59:07.363Z,54.25
2018-08-24T20:01:34.871Z,53.79
2018-08-24T20:04:02.433Z,54.68
2018-08-24T20:06:30.022Z,54.94
2018-08-24T20:08:58.385Z,54.40
2018-08-24T20:11:25.963Z,54.84
2018-08-24T20:13:53.518Z,54.76
2018-08-24T20:16:26.581Z,54.96
2018-08-24T20:18:54.154Z,54.30
2018-08-24T20:21:21.954Z,55.10
2018-08-24T20:23:49.513Z,54.62
2018-08-24T20:26:17.060Z,54.79
2018-08-24T20:28:44.578Z,54.45
2018-08-24T20:31:12.157Z,54.76
2018-08-24T20:33:39.755Z,54.80
2018-08-24T20:36:07.325Z,54.29
2018-08-24T20:38:34.850Z,54.80
2018-08-24T20:41:02.468Z,55.45
2018-08-24T20:43:30.013Z,54.99
2018-08-24T20:45:57.557Z,54.84
2018-08-24T20:48:25.130Z,54.69
2018-08-24T20:50:52.666Z,55.09
2018-08-24T20:53:20.174Z,56.53
2018-08-24T20:55:47.887Z,56.18
2018-08-24T20:58:15.433Z,55.99
2018-08-24T21:00:43.099Z,55.81
2018-08-24T21:03:10.633Z,56.40
2018-08-24T21:05:38.182Z,56.34
2018-08-24T21:08:05.733Z,56.59
2018-08-24T21:10:33.267Z,56.23
2018-08-24T21:13:00.855Z,55.88
2018-08-24T21:15:28.391Z,55.91
2018-08-24T21:17:55.958Z,56.09
2018-08-24T21:20:23.503Z,55.36
2018-08-24T21:22:51.069Z,56.02
2018-08-24T21:25:18.641Z,55.86
2018-08-24T21:27:46.169Z,56.22
2018-08-24T21:30:13.887Z,56.20
2018-08-24T21:32:41.435Z,55.99
2018-08-24T21:35:08.957Z,56.90
2018-08-24T21:37:36.522Z,56.68
2018-08-24T21:40:04.036Z,56.23
2018-08-24T21:42:31.601Z,56.28
2018-08-24T21:44:59.181Z,56.49
2018-08-24T21:47:26.747Z,56.71
2018-08-24T21:49:54.338Z,56.91
2018-08-24T21:52:21.894Z,57.33
2018-08-24T21:54:49.424Z,57.22
2018-08-24T21:57:16.944Z,57.25
2018-08-24T21:59:44.525Z,58.07
2018-08-24T22:02:12.041Z,57.67
2018-08-24T22:04:39.562Z,58.19
2018-08-24T22:07:07.140Z,58.23
2018-08-24T22:09:34.705Z,58.36
2018-08-24T22:12:02.259Z,58.28
2018-08-24T22:14:29.985Z,58.58
2018-08-24T22:16:57.565Z,58.55
2018-08-24T22:19:25.063Z,58.98
2018-08-24T22:21:52.653Z,58.66
2018-08-24T22:24:20.190Z,57.84
2018-08-24T22:26:47.733Z,58.30
2018-08-24T22:29:15.312Z,57.06
2018-08-24T22:31:42.857Z,58.90
2018-08-24T22:34:10.443Z,57.97
2018-08-24T22:36:37.951Z,58.20
2018-08-24T22:39:05.464Z,58.66
2018-08-24T22:41:33.042Z,57.04
2018-08-24T22:44:00.625Z,57.00
2018-08-24T22:46:28.191Z,56.70
2018-08-24T22:48:55.756Z,58.45
2018-08-24T22:51:23.460Z,56.83
2018-08-24T22:53:50.977Z,56.83
2018-08-24T22:56:18.517Z,56.90
2018-08-24T22:58:46.092Z,57.11
2018-08-24T23:01:13.798Z,56.87
2018-08-24T23:03:41.343Z,56.72
2018-08-24T23:06:08.866Z,57.08
2018-08-24T23:08:36.414Z,56.52
2018-08-24T23:11:03.914Z,56.48
2018-08-24T23:13:31.461Z,56.65
2018-08-24T23:15:58.966Z,57.60
2018-08-24T23:18:26.523Z,57.46
2018-08-24T23:20:54.090Z,57.86
2018-08-24T23:23:21.634Z,57.57
2018-08-24T23:25:49.253Z,57.39
2018-08-24T23:28:16.957Z,57.63
2018-08-24T23:30:44.595Z,57.43
2018-08-24T23:33:12.390Z,57.18
2018-08-24T23:35:39.976Z,57.42
2018-08-24T23:38:07.662Z,56.94
2018-08-24T23:40:35.348Z,57.83
2018-08-24T23:43:03.073Z,57.31
2018-08-24T23:45:30.656Z,57.44
2018-08-24T23:47:58.236Z,57.28
2018-08-24T23:50:25.977Z,57.48
2018-08-24T23:52:53.577Z,57.17
2018-08-24T23:55:21.189Z,56.79
2018-08-24T23:57:48.896Z,56.91
